• Join FlightAware (Why Join?)
  • Login
  • US Flag 
05:49PM EDT


 

Airport Tracker/Info


-or-


 

Live Flight TrackerFlight Track Log ✈ N311GM ✈ 27-Jun-2013 ✈ KHUM - KLMS

Flight Track Log - Related Links

Times and Time Zones

All times are in EDT time to prevent confusion due to time zone crossing. See the N311GM flight status page for this flight to view local times or setup timezone preferences in your user account.

Time Position Orientation Groundspeed Altitude Reporting Facility
EDT Latitude Longitude Course Direction KTS MPH feet Rate Location/Type
06:12PM 29.5658 -90.6303 91° East 128 147 3,700  Level Houston Center
06:13PM 29.5856 -90.6233 17° North 144 166 5,100 2,280 Climbing Houston Center
06:13PM 29.6047 -90.6181 13° North 141 162 6,100 2,160 Climbing Houston Center
06:14PM 29.6469 -90.6119 North 145 167 8,500 2,340 Climbing Houston Center
06:15PM 29.6908 -90.6025 11° North 153 176 11,000 2,160 Climbing Houston Center
06:16PM 29.7328 -90.5919 12° North 154 177 13,000 1,800 Climbing Houston Center
06:17PM 29.7931 -90.5781 11° North 188 216 14,800 1,740 Climbing Houston Center
06:18PM 29.8464 -90.5669 10° North 194 223 16,700 1,620 Climbing Houston Center
06:19PM 29.9006 -90.5564 10° North 198 228 18,200 1,440 Climbing Houston Center
06:20PM 29.9556 -90.5450 10° North 201 231 19,700 1,320 Climbing Houston Center
06:21PM 30.0111 -90.5331 11° North 203 234 21,000 1,200 Climbing Houston Center
06:22PM 30.0678 -90.5211 10° North 205 236 22,200 1,200 Climbing Houston Center
06:23PM 30.1392 -90.5067 10° North 216 249 23,600 1,200 Climbing Houston Center
06:24PM 30.1983 -90.4944 10° North 217 250 24,700 960 Climbing Houston Center
06:26PM 30.2572 -90.4819 10° North 215 247 25,600 960 Climbing Houston Center
06:27PM 30.3122 -90.4567 22° Northeast 213 245 26,700 960 Climbing Houston Center
06:28PM 30.3661 -90.4297 23° Northeast 211 243 27,600 840 Climbing Houston Center
06:29PM 30.4200 -90.4056 21° North 209 241 28,500 660 Climbing Houston Center
06:30PM 30.4747 -90.3781 23° Northeast 212 244 29,000 240 Climbing Houston Center
06:31PM 30.5489 -90.3381 25° Northeast 242 278 29,000  Level Houston Center
06:32PM 30.6158 -90.3025 25° Northeast 259 298 29,000  Level Houston Center
06:33PM 30.6822 -90.2669 25° Northeast 263 303 29,000  Level Houston Center
06:34PM 30.7511 -90.2319 24° Northeast 267 307 29,000  Level Houston Center
06:35PM 30.8178 -90.1953 25° Northeast 266 306 29,000  Level Houston Center
06:36PM 30.8847 -90.1589 25° Northeast 265 305 29,000  Level Houston Center
06:37PM 30.9658 -90.1150 25° Northeast 267 307 29,000  Level Houston Center
06:38PM 31.0331 -90.0789 25° Northeast 266 306 29,000  Level Houston Center
06:39PM 31.1006 -90.0431 24° Northeast 265 305 29,000  Level Houston Center
06:40PM 31.1669 -90.0072 25° Northeast 265 305 29,000  Level Houston Center
06:41PM 31.2347 -89.9703 25° Northeast 266 306 29,000  Level Houston Center
06:42PM 31.3014 -89.9344 25° Northeast 265 305 29,000  Level Houston Center
06:43PM 31.3808 -89.8908 25° Northeast 263 303 29,000  Level Houston Center
06:44PM 31.4475 -89.8544 25° Northeast 264 304 29,000  Level Houston Center
06:45PM 31.5139 -89.8186 25° Northeast 263 303 29,000  Level Houston Center
06:46PM 31.5811 -89.7819 25° Northeast 265 305 29,000  Level Houston Center
06:47PM 31.6481 -89.7458 25° Northeast 266 306 29,000 -360 Level Houston Center
06:48PM 31.7169 -89.7078 25° Northeast 272 313 28,300 -780 Descending Houston Center
06:49PM 31.8044 -89.6586 26° Northeast 288 331 27,500 -1,260 Descending Houston Center
06:50PM 31.8694 -89.6231 25° Northeast 293 337 25,800 720 Descending Houston Center
06:51PM 31.9556 -89.5764 25° Northeast 284 327 29,000 1,620 Climbing Memphis Center
06:52PM 32.0283 -89.5364 25° Northeast 289 333 29,000  Level Memphis Center
06:53PM 32.0947 -89.5017 24° Northeast 289 333 29,000  Level Memphis Center
06:54PM 32.1678 -89.4639 24° Northeast 289 333 29,000  Level Memphis Center
06:55PM 32.2342 -89.4314 22° Northeast 270 311 29,000  Level Memphis Center
06:56PM 32.2967 -89.3964 25° Northeast 257 296 29,000  Level Memphis Center
06:57PM 32.3569 -89.3614 26° Northeast 244 281 29,000  Level Memphis Center
06:58PM 32.4192 -89.3211 29° Northeast 239 275 29,000  Level Memphis Center
06:59PM 32.4814 -89.2886 24° Northeast 239 275 29,000  Level Memphis Center
07:00PM 32.5417 -89.2558 25° Northeast 239 275 29,000  Level Memphis Center
07:01PM 32.6042 -89.2203 26° Northeast 239 275 29,000  Level Memphis Center
07:02PM 32.6622 -89.1875 25° Northeast 239 275 29,000  Level Memphis Center
07:04PM 32.7359 -89.1686 23° Northeast  Level Estimated
07:11PM 33.1333 -89.0500 29° Northeast  Level FlightAware Approximate
07:12PM 33.1462 -89.0625 29° Northeast  Level Estimated
07:13PM 33.1462 -89.0625 29° Northeast  Level Estimated
07:14PM 33.1462 -89.0625 29° Northeast  Level Estimated
07:15PM 33.1462 -89.0625 29° Northeast  Level Estimated
07:16PM 33.1462 -89.0625 29° Northeast  Level Estimated
07:17PM 33.1462 -89.0625 29° Northeast  Level Estimated
07:18PM 33.1462 -89.0625 29° Northeast  Level Estimated
07:19PM 33.1462 -89.0625 29° Northeast  Level Estimated
07:20PM 33.1462 -89.0625 29° Northeast  Level Estimated
07:21PM 33.1462 -89.0625 29° Northeast  Level Estimated
07:22PM 33.1462 -89.0625 29° Northeast  Level Estimated
07:23PM 33.1462 -89.0625 29° Northeast  Level Estimated
07:24PM 33.1462 -89.0625 29° Northeast  Level Estimated
07:25PM 33.1462 -89.0625 29° Northeast  Level Estimated
07:26PM 33.1462 -89.0625 29° Northeast  Level Estimated